sensor_id;sensor_type;location;lat;lon;timestamp;P1;durP1;ratioP1;P2;durP2;ratioP2
64609;SDS011;51019;46.090;6.350;2022-08-01T00:02:27;8.55;;;3.00;;
64609;SDS011;51019;46.090;6.350;2022-08-01T00:04:55;9.00;;;3.03;;
64609;SDS011;51019;46.090;6.350;2022-08-01T00:07:23;9.68;;;3.15;;
64609;SDS011;51019;46.090;6.350;2022-08-01T00:09:50;10.20;;;3.30;;
64609;SDS011;51019;46.090;6.350;2022-08-01T00:12:19;8.82;;;2.92;;
64609;SDS011;51019;46.090;6.350;2022-08-01T00:14:46;11.57;;;3.13;;
64609;SDS011;51019;46.090;6.350;2022-08-01T00:17:13;9.13;;;3.15;;
64609;SDS011;51019;46.090;6.350;2022-08-01T00:19:40;9.45;;;3.10;;
64609;SDS011;51019;46.090;6.350;2022-08-01T00:22:08;9.05;;;3.10;;
64609;SDS011;51019;46.090;6.350;2022-08-01T00:24:35;10.68;;;3.30;;
64609;SDS011;51019;46.090;6.350;2022-08-01T00:27:02;10.75;;;3.22;;
64609;SDS011;51019;46.090;6.350;2022-08-01T00:29:31;11.20;;;3.72;;
64609;SDS011;51019;46.090;6.350;2022-08-01T00:31:59;9.32;;;3.35;;
64609;SDS011;51019;46.090;6.350;2022-08-01T00:34:26;9.55;;;2.70;;
64609;SDS011;51019;46.090;6.350;2022-08-01T00:36:54;11.00;;;3.50;;
64609;SDS011;51019;46.090;6.350;2022-08-01T00:39:21;15.00;;;3.60;;
64609;SDS011;51019;46.090;6.350;2022-08-01T00:41:48;10.35;;;3.15;;
64609;SDS011;51019;46.090;6.350;2022-08-01T00:44:15;10.23;;;3.60;;
64609;SDS011;51019;46.090;6.350;2022-08-01T00:46:44;10.95;;;2.97;;
64609;SDS011;51019;46.090;6.350;2022-08-01T00:49:11;8.73;;;2.78;;
64609;SDS011;51019;46.090;6.350;2022-08-01T00:51:38;8.98;;;2.83;;
64609;SDS011;51019;46.090;6.350;2022-08-01T00:54:05;9.48;;;3.40;;
64609;SDS011;51019;46.090;6.350;2022-08-01T00:56:33;9.38;;;2.97;;
64609;SDS011;51019;46.090;6.350;2022-08-01T00:59:00;9.32;;;3.03;;
64609;SDS011;51019;46.090;6.350;2022-08-01T01:01:30;9.10;;;3.08;;
64609;SDS011;51019;46.090;6.350;2022-08-01T01:03:59;9.38;;;3.05;;
64609;SDS011;51019;46.090;6.350;2022-08-01T01:06:28;10.20;;;3.00;;
64609;SDS011;51019;46.090;6.350;2022-08-01T01:09:08;9.30;;;3.13;;
64609;SDS011;51019;46.090;6.350;2022-08-01T01:11:56;9.68;;;3.10;;
64609;SDS011;51019;46.090;6.350;2022-08-01T01:14:30;9.85;;;3.00;;
64609;SDS011;51019;46.090;6.350;2022-08-01T01:17:00;11.82;;;3.47;;
64609;SDS011;51019;46.090;6.350;2022-08-01T01:19:33;12.05;;;3.10;;
64609;SDS011;51019;46.090;6.350;2022-08-01T01:25:04;9.18;;;3.00;;
64609;SDS011;51019;46.090;6.350;2022-08-01T01:27:46;10.80;;;3.10;;
64609;SDS011;51019;46.090;6.350;2022-08-01T01:30:25;9.30;;;3.40;;
64609;SDS011;51019;46.090;6.350;2022-08-01T01:32:58;10.77;;;2.95;;
64609;SDS011;51019;46.090;6.350;2022-08-01T01:35:30;9.15;;;3.42;;
64609;SDS011;51019;46.090;6.350;2022-08-01T01:38:04;10.55;;;3.20;;
64609;SDS011;51019;46.090;6.350;2022-08-01T01:40:36;8.80;;;2.97;;
64609;SDS011;51019;46.090;6.350;2022-08-01T01:43:05;9.73;;;3.22;;
64609;SDS011;51019;46.090;6.350;2022-08-01T01:45:38;8.98;;;2.90;;
64609;SDS011;51019;46.090;6.350;2022-08-01T01:48:06;9.38;;;3.20;;
64609;SDS011;51019;46.090;6.350;2022-08-01T01:50:36;10.40;;;3.15;;
64609;SDS011;51019;46.090;6.350;2022-08-01T01:53:04;9.30;;;3.30;;
64609;SDS011;51019;46.090;6.350;2022-08-01T01:55:33;11.80;;;3.67;;
64609;SDS011;51019;46.090;6.350;2022-08-01T01:58:03;9.82;;;3.50;;
64609;SDS011;51019;46.090;6.350;2022-08-01T02:00:34;11.18;;;3.35;;
64609;SDS011;51019;46.090;6.350;2022-08-01T02:03:05;10.98;;;3.55;;
64609;SDS011;51019;46.090;6.350;2022-08-01T02:05:34;9.82;;;3.58;;
64609;SDS011;51019;46.090;6.350;2022-08-01T02:08:03;10.32;;;3.60;;
64609;SDS011;51019;46.090;6.350;2022-08-01T02:10:32;10.63;;;3.60;;
64609;SDS011;51019;46.090;6.350;2022-08-01T02:13:01;10.43;;;3.20;;
64609;SDS011;51019;46.090;6.350;2022-08-01T02:15:31;11.85;;;3.60;;
64609;SDS011;51019;46.090;6.350;2022-08-01T02:18:05;11.18;;;3.40;;
64609;SDS011;51019;46.090;6.350;2022-08-01T02:20:36;10.20;;;3.65;;
64609;SDS011;51019;46.090;6.350;2022-08-01T02:23:06;10.57;;;3.85;;
64609;SDS011;51019;46.090;6.350;2022-08-01T02:25:36;10.30;;;3.13;;
64609;SDS011;51019;46.090;6.350;2022-08-01T02:28:09;9.98;;;3.70;;
64609;SDS011;51019;46.090;6.350;2022-08-01T02:30:42;12.27;;;3.50;;
64609;SDS011;51019;46.090;6.350;2022-08-01T02:33:16;10.40;;;3.80;;
64609;SDS011;51019;46.090;6.350;2022-08-01T02:35:47;8.95;;;3.33;;
64609;SDS011;51019;46.090;6.350;2022-08-01T02:38:17;9.30;;;3.20;;
64609;SDS011;51019;46.090;6.350;2022-08-01T02:40:47;10.25;;;3.67;;
64609;SDS011;51019;46.090;6.350;2022-08-01T02:43:18;9.20;;;3.25;;
64609;SDS011;51019;46.090;6.350;2022-08-01T02:45:49;10.73;;;3.50;;
64609;SDS011;51019;46.090;6.350;2022-08-01T02:48:23;10.18;;;3.22;;
64609;SDS011;51019;46.090;6.350;2022-08-01T02:50:54;11.05;;;3.63;;
64609;SDS011;51019;46.090;6.350;2022-08-01T02:53:24;11.07;;;3.60;;
64609;SDS011;51019;46.090;6.350;2022-08-01T02:55:53;10.43;;;3.83;;
64609;SDS011;51019;46.090;6.350;2022-08-01T02:58:22;11.70;;;3.90;;
64609;SDS011;51019;46.090;6.350;2022-08-01T03:00:49;10.32;;;3.65;;
64609;SDS011;51019;46.090;6.350;2022-08-01T03:03:18;10.93;;;3.80;;
64609;SDS011;51019;46.090;6.350;2022-08-01T03:05:47;11.50;;;3.58;;
64609;SDS011;51019;46.090;6.350;2022-08-01T03:08:15;9.98;;;3.33;;
64609;SDS011;51019;46.090;6.350;2022-08-01T03:10:45;11.13;;;3.88;;
64609;SDS011;51019;46.090;6.350;2022-08-01T03:13:13;10.48;;;3.50;;
64609;SDS011;51019;46.090;6.350;2022-08-01T03:15:41;9.70;;;3.33;;
64609;SDS011;51019;46.090;6.350;2022-08-01T03:18:10;10.45;;;3.67;;
64609;SDS011;51019;46.090;6.350;2022-08-01T03:20:39;11.40;;;3.60;;
64609;SDS011;51019;46.090;6.350;2022-08-01T03:23:10;11.82;;;4.18;;
64609;SDS011;51019;46.090;6.350;2022-08-01T03:25:39;11.63;;;3.78;;
64609;SDS011;51019;46.090;6.350;2022-08-01T03:28:11;10.80;;;3.75;;
64609;SDS011;51019;46.090;6.350;2022-08-01T03:30:40;9.52;;;3.65;;
64609;SDS011;51019;46.090;6.350;2022-08-01T03:33:09;10.48;;;4.20;;
64609;SDS011;51019;46.090;6.350;2022-08-01T03:35:37;11.50;;;4.05;;
64609;SDS011;51019;46.090;6.350;2022-08-01T03:38:10;11.32;;;3.92;;
64609;SDS011;51019;46.090;6.350;2022-08-01T03:40:42;11.70;;;3.90;;
64609;SDS011;51019;46.090;6.350;2022-08-01T03:43:13;9.90;;;3.63;;
64609;SDS011;51019;46.090;6.350;2022-08-01T03:45:46;10.33;;;3.57;;
64609;SDS011;51019;46.090;6.350;2022-08-01T03:48:18;11.07;;;3.97;;
64609;SDS011;51019;46.090;6.350;2022-08-01T03:50:51;9.25;;;3.72;;
64609;SDS011;51019;46.090;6.350;2022-08-01T03:53:22;11.05;;;3.53;;
64609;SDS011;51019;46.090;6.350;2022-08-01T03:55:51;10.43;;;3.90;;
64609;SDS011;51019;46.090;6.350;2022-08-01T03:58:20;10.60;;;3.90;;
64609;SDS011;51019;46.090;6.350;2022-08-01T04:00:48;11.02;;;3.80;;
64609;SDS011;51019;46.090;6.350;2022-08-01T04:03:15;11.05;;;3.55;;
64609;SDS011;51019;46.090;6.350;2022-08-01T04:05:43;9.73;;;3.40;;
64609;SDS011;51019;46.090;6.350;2022-08-01T04:08:10;14.05;;;3.78;;
64609;SDS011;51019;46.090;6.350;2022-08-01T04:10:40;13.45;;;4.07;;
64609;SDS011;51019;46.090;6.350;2022-08-01T04:13:08;10.18;;;3.58;;
64609;SDS011;51019;46.090;6.350;2022-08-01T04:15:35;10.60;;;3.80;;
64609;SDS011;51019;46.090;6.350;2022-08-01T04:18:04;11.77;;;3.97;;
64609;SDS011;51019;46.090;6.350;2022-08-01T04:20:31;13.38;;;3.78;;
64609;SDS011;51019;46.090;6.350;2022-08-01T04:22:58;10.85;;;3.97;;
64609;SDS011;51019;46.090;6.350;2022-08-01T04:25:26;10.30;;;3.47;;
64609;SDS011;51019;46.090;6.350;2022-08-01T04:30:29;10.45;;;3.85;;
64609;SDS011;51019;46.090;6.350;2022-08-01T04:33:00;12.63;;;4.20;;
64609;SDS011;51019;46.090;6.350;2022-08-01T04:35:30;10.98;;;4.20;;
64609;SDS011;51019;46.090;6.350;2022-08-01T04:38:00;11.00;;;4.03;;
64609;SDS011;51019;46.090;6.350;2022-08-01T04:40:28;15.55;;;4.25;;
64609;SDS011;51019;46.090;6.350;2022-08-01T04:42:55;14.32;;;4.15;;
64609;SDS011;51019;46.090;6.350;2022-08-01T04:45:24;13.52;;;4.60;;
64609;SDS011;51019;46.090;6.350;2022-08-01T04:47:52;11.80;;;3.85;;
64609;SDS011;51019;46.090;6.350;2022-08-01T04:50:20;13.65;;;4.22;;
64609;SDS011;51019;46.090;6.350;2022-08-01T04:52:49;11.55;;;3.88;;
64609;SDS011;51019;46.090;6.350;2022-08-01T04:55:16;11.38;;;4.30;;
64609;SDS011;51019;46.090;6.350;2022-08-01T04:57:44;12.10;;;3.85;;
64609;SDS011;51019;46.090;6.350;2022-08-01T05:00:13;11.27;;;3.95;;
64609;SDS011;51019;46.090;6.350;2022-08-01T05:02:44;13.55;;;4.10;;
64609;SDS011;51019;46.090;6.350;2022-08-01T05:05:11;13.13;;;3.85;;
64609;SDS011;51019;46.090;6.350;2022-08-01T05:07:39;14.90;;;4.70;;
64609;SDS011;51019;46.090;6.350;2022-08-01T05:10:07;13.25;;;4.20;;
64609;SDS011;51019;46.090;6.350;2022-08-01T05:12:35;12.52;;;4.47;;
64609;SDS011;51019;46.090;6.350;2022-08-01T05:15:02;12.13;;;4.22;;
64609;SDS011;51019;46.090;6.350;2022-08-01T05:17:31;10.63;;;4.22;;
64609;SDS011;51019;46.090;6.350;2022-08-01T05:20:00;12.35;;;4.60;;
64609;SDS011;51019;46.090;6.350;2022-08-01T05:22:27;11.90;;;4.50;;
64609;SDS011;51019;46.090;6.350;2022-08-01T05:24:54;12.55;;;3.85;;
64609;SDS011;51019;46.090;6.350;2022-08-01T05:27:21;12.77;;;4.38;;
64609;SDS011;51019;46.090;6.350;2022-08-01T05:29:48;12.93;;;4.05;;
64609;SDS011;51019;46.090;6.350;2022-08-01T05:32:16;12.77;;;4.22;;
64609;SDS011;51019;46.090;6.350;2022-08-01T05:34:43;13.32;;;3.92;;
64609;SDS011;51019;46.090;6.350;2022-08-01T05:37:12;15.45;;;4.60;;
64609;SDS011;51019;46.090;6.350;2022-08-01T05:39:39;11.48;;;4.22;;
64609;SDS011;51019;46.090;6.350;2022-08-01T05:42:06;15.23;;;4.40;;
64609;SDS011;51019;46.090;6.350;2022-08-01T05:44:33;12.35;;;4.50;;
64609;SDS011;51019;46.090;6.350;2022-08-01T05:47:00;12.05;;;4.53;;
64609;SDS011;51019;46.090;6.350;2022-08-01T05:49:28;10.68;;;3.97;;
64609;SDS011;51019;46.090;6.350;2022-08-01T05:51:55;11.95;;;4.25;;
64609;SDS011;51019;46.090;6.350;2022-08-01T05:54:24;10.98;;;4.10;;
64609;SDS011;51019;46.090;6.350;2022-08-01T05:56:51;13.63;;;4.45;;
64609;SDS011;51019;46.090;6.350;2022-08-01T05:59:18;14.88;;;4.70;;
64609;SDS011;51019;46.090;6.350;2022-08-01T06:01:45;13.50;;;5.00;;
64609;SDS011;51019;46.090;6.350;2022-08-01T06:04:13;11.95;;;4.78;;
64609;SDS011;51019;46.090;6.350;2022-08-01T06:06:40;11.68;;;4.53;;
64609;SDS011;51019;46.090;6.350;2022-08-01T06:09:07;10.63;;;4.13;;
64609;SDS011;51019;46.090;6.350;2022-08-01T06:11:35;11.40;;;4.63;;
64609;SDS011;51019;46.090;6.350;2022-08-01T06:14:05;11.60;;;4.43;;
64609;SDS011;51019;46.090;6.350;2022-08-01T06:16:32;12.57;;;4.30;;
64609;SDS011;51019;46.090;6.350;2022-08-01T06:18:59;13.50;;;4.30;;
64609;SDS011;51019;46.090;6.350;2022-08-01T06:21:27;11.82;;;4.03;;
64609;SDS011;51019;46.090;6.350;2022-08-01T06:23:54;11.75;;;4.13;;
64609;SDS011;51019;46.090;6.350;2022-08-01T06:26:21;12.57;;;4.00;;
64609;SDS011;51019;46.090;6.350;2022-08-01T06:28:50;14.30;;;4.57;;
64609;SDS011;51019;46.090;6.350;2022-08-01T06:31:17;11.75;;;4.40;;
64609;SDS011;51019;46.090;6.350;2022-08-01T06:33:45;12.25;;;3.78;;
64609;SDS011;51019;46.090;6.350;2022-08-01T06:36:12;14.45;;;4.03;;
64609;SDS011;51019;46.090;6.350;2022-08-01T06:38:39;12.73;;;3.80;;
64609;SDS011;51019;46.090;6.350;2022-08-01T06:41:06;10.02;;;3.65;;
64609;SDS011;51019;46.090;6.350;2022-08-01T06:43:33;15.25;;;3.90;;
64609;SDS011;51019;46.090;6.350;2022-08-01T06:46:02;12.82;;;3.75;;
64609;SDS011;51019;46.090;6.350;2022-08-01T06:48:29;10.70;;;3.80;;
64609;SDS011;51019;46.090;6.350;2022-08-01T06:50:56;11.60;;;3.53;;
64609;SDS011;51019;46.090;6.350;2022-08-01T06:53:34;13.27;;;3.70;;
64609;SDS011;51019;46.090;6.350;2022-08-01T06:56:02;11.18;;;3.72;;
64609;SDS011;51019;46.090;6.350;2022-08-01T06:58:29;11.15;;;3.67;;
64609;SDS011;51019;46.090;6.350;2022-08-01T07:00:57;13.75;;;3.80;;
64609;SDS011;51019;46.090;6.350;2022-08-01T07:03:25;18.13;;;4.22;;
64609;SDS011;51019;46.090;6.350;2022-08-01T07:05:53;13.90;;;3.67;;
64609;SDS011;51019;46.090;6.350;2022-08-01T07:08:20;13.18;;;3.50;;
64609;SDS011;51019;46.090;6.350;2022-08-01T07:10:47;10.60;;;3.58;;
64609;SDS011;51019;46.090;6.350;2022-08-01T07:13:14;15.13;;;3.33;;
64609;SDS011;51019;46.090;6.350;2022-08-01T07:15:46;11.33;;;3.60;;
64609;SDS011;51019;46.090;6.350;2022-08-01T07:18:13;12.88;;;3.35;;
64609;SDS011;51019;46.090;6.350;2022-08-01T07:20:42;13.43;;;3.50;;
64609;SDS011;51019;46.090;6.350;2022-08-01T07:23:11;13.07;;;3.50;;
64609;SDS011;51019;46.090;6.350;2022-08-01T07:25:38;14.02;;;3.25;;
64609;SDS011;51019;46.090;6.350;2022-08-01T07:28:05;13.00;;;3.40;;
64609;SDS011;51019;46.090;6.350;2022-08-01T07:30:32;12.27;;;3.70;;
64609;SDS011;51019;46.090;6.350;2022-08-01T07:33:00;11.10;;;3.60;;
64609;SDS011;51019;46.090;6.350;2022-08-01T07:35:27;12.63;;;3.30;;
64609;SDS011;51019;46.090;6.350;2022-08-01T07:37:56;9.45;;;3.47;;
64609;SDS011;51019;46.090;6.350;2022-08-01T07:40:23;8.70;;;3.20;;
64609;SDS011;51019;46.090;6.350;2022-08-01T07:42:50;10.70;;;3.40;;
64609;SDS011;51019;46.090;6.350;2022-08-01T07:45:17;9.82;;;3.50;;
64609;SDS011;51019;46.090;6.350;2022-08-01T07:47:45;12.85;;;3.78;;
64609;SDS011;51019;46.090;6.350;2022-08-01T07:50:14;13.50;;;3.78;;
64609;SDS011;51019;46.090;6.350;2022-08-01T07:52:41;12.63;;;3.97;;
64609;SDS011;51019;46.090;6.350;2022-08-01T07:55:11;15.40;;;3.63;;
64609;SDS011;51019;46.090;6.350;2022-08-01T07:57:38;10.25;;;3.40;;
64609;SDS011;51019;46.090;6.350;2022-08-01T08:00:06;10.90;;;3.83;;
64609;SDS011;51019;46.090;6.350;2022-08-01T08:02:35;13.00;;;3.38;;
64609;SDS011;51019;46.090;6.350;2022-08-01T08:05:02;11.38;;;3.15;;
64609;SDS011;51019;46.090;6.350;2022-08-01T08:07:31;10.93;;;3.08;;
64609;SDS011;51019;46.090;6.350;2022-08-01T08:09:58;11.50;;;3.05;;
64609;SDS011;51019;46.090;6.350;2022-08-01T08:12:27;8.95;;;2.85;;
64609;SDS011;51019;46.090;6.350;2022-08-01T08:14:54;8.10;;;2.67;;
64609;SDS011;51019;46.090;6.350;2022-08-01T08:17:21;10.45;;;3.00;;
64609;SDS011;51019;46.090;6.350;2022-08-01T08:19:48;8.52;;;2.75;;
64609;SDS011;51019;46.090;6.350;2022-08-01T08:22:15;11.35;;;2.90;;
64609;SDS011;51019;46.090;6.350;2022-08-01T08:24:43;8.60;;;2.60;;
64609;SDS011;51019;46.090;6.350;2022-08-01T08:27:10;9.73;;;3.00;;
64609;SDS011;51019;46.090;6.350;2022-08-01T08:29:39;7.13;;;2.30;;
64609;SDS011;51019;46.090;6.350;2022-08-01T08:32:07;8.70;;;2.80;;
64609;SDS011;51019;46.090;6.350;2022-08-01T08:34:34;8.88;;;2.63;;
64609;SDS011;51019;46.090;6.350;2022-08-01T08:37:02;7.82;;;2.58;;
64609;SDS011;51019;46.090;6.350;2022-08-01T08:39:29;9.27;;;2.80;;
64609;SDS011;51019;46.090;6.350;2022-08-01T08:42:00;9.38;;;2.55;;
64609;SDS011;51019;46.090;6.350;2022-08-01T08:44:28;8.05;;;2.70;;
64609;SDS011;51019;46.090;6.350;2022-08-01T08:46:57;6.85;;;2.40;;
64609;SDS011;51019;46.090;6.350;2022-08-01T08:49:28;7.40;;;2.40;;
64609;SDS011;51019;46.090;6.350;2022-08-01T08:51:59;7.95;;;2.45;;
64609;SDS011;51019;46.090;6.350;2022-08-01T08:54:28;7.07;;;2.30;;
64609;SDS011;51019;46.090;6.350;2022-08-01T08:56:57;7.32;;;2.40;;
64609;SDS011;51019;46.090;6.350;2022-08-01T08:59:25;8.82;;;2.67;;
64609;SDS011;51019;46.090;6.350;2022-08-01T09:01:53;8.13;;;2.50;;
64609;SDS011;51019;46.090;6.350;2022-08-01T09:04:22;7.05;;;2.28;;
64609;SDS011;51019;46.090;6.350;2022-08-01T09:06:49;9.43;;;2.97;;
64609;SDS011;51019;46.090;6.350;2022-08-01T09:09:16;8.10;;;2.35;;
64609;SDS011;51019;46.090;6.350;2022-08-01T09:11:44;8.07;;;2.40;;
64609;SDS011;51019;46.090;6.350;2022-08-01T09:14:12;9.20;;;2.50;;
64609;SDS011;51019;46.090;6.350;2022-08-01T09:16:47;9.38;;;2.58;;
64609;SDS011;51019;46.090;6.350;2022-08-01T09:19:34;7.97;;;2.45;;
64609;SDS011;51019;46.090;6.350;2022-08-01T09:22:02;8.75;;;2.70;;
64609;SDS011;51019;46.090;6.350;2022-08-01T09:24:31;7.38;;;2.40;;
64609;SDS011;51019;46.090;6.350;2022-08-01T09:26:59;9.88;;;2.53;;
64609;SDS011;51019;46.090;6.350;2022-08-01T09:29:28;9.63;;;2.33;;
64609;SDS011;51019;46.090;6.350;2022-08-01T09:31:56;8.77;;;2.25;;
64609;SDS011;51019;46.090;6.350;2022-08-01T09:34:25;9.20;;;2.53;;
64609;SDS011;51019;46.090;6.350;2022-08-01T09:36:55;10.48;;;2.90;;
64609;SDS011;51019;46.090;6.350;2022-08-01T09:39:25;8.70;;;2.60;;
64609;SDS011;51019;46.090;6.350;2022-08-01T09:42:19;6.88;;;2.20;;
64609;SDS011;51019;46.090;6.350;2022-08-01T09:44:49;8.55;;;2.13;;
64609;SDS011;51019;46.090;6.350;2022-08-01T09:47:16;8.65;;;2.20;;
64609;SDS011;51019;46.090;6.350;2022-08-01T09:49:45;7.95;;;2.60;;
64609;SDS011;51019;46.090;6.350;2022-08-01T09:52:23;7.25;;;2.17;;
64609;SDS011;51019;46.090;6.350;2022-08-01T09:54:54;9.23;;;2.25;;
64609;SDS011;51019;46.090;6.350;2022-08-01T09:57:23;8.43;;;2.35;;
64609;SDS011;51019;46.090;6.350;2022-08-01T09:59:50;9.40;;;2.42;;
64609;SDS011;51019;46.090;6.350;2022-08-01T10:02:30;7.18;;;2.30;;
64609;SDS011;51019;46.090;6.350;2022-08-01T10:04:59;14.05;;;2.30;;
64609;SDS011;51019;46.090;6.350;2022-08-01T10:07:29;10.68;;;2.38;;
64609;SDS011;51019;46.090;6.350;2022-08-01T10:09:59;7.15;;;2.00;;
64609;SDS011;51019;46.090;6.350;2022-08-01T10:12:36;10.30;;;2.30;;
64609;SDS011;51019;46.090;6.350;2022-08-01T10:15:05;7.90;;;2.20;;
64609;SDS011;51019;46.090;6.350;2022-08-01T10:17:34;6.05;;;2.08;;
64609;SDS011;51019;46.090;6.350;2022-08-01T10:20:05;6.43;;;2.10;;
64609;SDS011;51019;46.090;6.350;2022-08-01T10:22:36;9.02;;;2.55;;
64609;SDS011;51019;46.090;6.350;2022-08-01T10:25:04;6.60;;;2.10;;
64609;SDS011;51019;46.090;6.350;2022-08-01T10:27:32;8.68;;;2.08;;
64609;SDS011;51019;46.090;6.350;2022-08-01T10:30:03;8.10;;;2.10;;
64609;SDS011;51019;46.090;6.350;2022-08-01T10:32:34;6.85;;;2.05;;
64609;SDS011;51019;46.090;6.350;2022-08-01T10:35:03;7.53;;;2.10;;
64609;SDS011;51019;46.090;6.350;2022-08-01T10:37:32;8.00;;;2.00;;
64609;SDS011;51019;46.090;6.350;2022-08-01T10:40:04;5.22;;;1.73;;
64609;SDS011;51019;46.090;6.350;2022-08-01T10:42:34;6.25;;;2.10;;
64609;SDS011;51019;46.090;6.350;2022-08-01T10:45:01;7.22;;;2.03;;
64609;SDS011;51019;46.090;6.350;2022-08-01T10:47:32;8.63;;;2.53;;
64609;SDS011;51019;46.090;6.350;2022-08-01T10:50:07;6.43;;;2.15;;
64609;SDS011;51019;46.090;6.350;2022-08-01T10:55:26;6.57;;;1.98;;
64609;SDS011;51019;46.090;6.350;2022-08-01T10:57:54;4.68;;;1.80;;
64609;SDS011;51019;46.090;6.350;2022-08-01T11:00:21;7.40;;;2.10;;
64609;SDS011;51019;46.090;6.350;2022-08-01T11:02:56;4.88;;;1.75;;
64609;SDS011;51019;46.090;6.350;2022-08-01T11:05:26;7.65;;;2.08;;
64609;SDS011;51019;46.090;6.350;2022-08-01T11:07:54;6.80;;;1.90;;
64609;SDS011;51019;46.090;6.350;2022-08-01T11:10:22;4.47;;;1.67;;
64609;SDS011;51019;46.090;6.350;2022-08-01T11:12:58;6.63;;;1.80;;
64609;SDS011;51019;46.090;6.350;2022-08-01T11:15:28;8.90;;;2.30;;
64609;SDS011;51019;46.090;6.350;2022-08-01T11:17:56;6.82;;;2.20;;
64609;SDS011;51019;46.090;6.350;2022-08-01T11:20:25;9.10;;;1.95;;
64609;SDS011;51019;46.090;6.350;2022-08-01T11:26:12;7.18;;;1.73;;
64609;SDS011;51019;46.090;6.350;2022-08-01T11:28:42;5.57;;;1.58;;
64609;SDS011;51019;46.090;6.350;2022-08-01T11:31:29;7.05;;;1.90;;
64609;SDS011;51019;46.090;6.350;2022-08-01T11:34:00;5.53;;;1.55;;
64609;SDS011;51019;46.090;6.350;2022-08-01T11:36:28;6.13;;;1.85;;
64609;SDS011;51019;46.090;6.350;2022-08-01T11:39:15;4.85;;;1.65;;
64609;SDS011;51019;46.090;6.350;2022-08-01T11:41:46;5.05;;;1.90;;
64609;SDS011;51019;46.090;6.350;2022-08-01T11:44:16;7.63;;;1.98;;
64609;SDS011;51019;46.090;6.350;2022-08-01T11:46:49;4.40;;;1.52;;
64609;SDS011;51019;46.090;6.350;2022-08-01T11:49:29;4.22;;;1.50;;
64609;SDS011;51019;46.090;6.350;2022-08-01T11:54:38;3.45;;;1.45;;
64609;SDS011;51019;46.090;6.350;2022-08-01T11:57:09;4.20;;;1.60;;
64609;SDS011;51019;46.090;6.350;2022-08-01T11:59:39;5.32;;;1.65;;
64609;SDS011;51019;46.090;6.350;2022-08-01T12:02:21;3.60;;;1.42;;
64609;SDS011;51019;46.090;6.350;2022-08-01T12:04:53;2.92;;;1.30;;
64609;SDS011;51019;46.090;6.350;2022-08-01T12:07:25;3.15;;;1.30;;
64609;SDS011;51019;46.090;6.350;2022-08-01T12:09:58;3.25;;;1.30;;
64609;SDS011;51019;46.090;6.350;2022-08-01T12:12:29;2.97;;;1.25;;
64609;SDS011;51019;46.090;6.350;2022-08-01T12:14:58;3.25;;;1.40;;
64609;SDS011;51019;46.090;6.350;2022-08-01T12:17:27;3.15;;;1.30;;
64609;SDS011;51019;46.090;6.350;2022-08-01T12:19:55;3.28;;;1.33;;
64609;SDS011;51019;46.090;6.350;2022-08-01T12:22:23;3.60;;;1.27;;
64609;SDS011;51019;46.090;6.350;2022-08-01T12:24:51;4.53;;;1.30;;
64609;SDS011;51019;46.090;6.350;2022-08-01T12:27:24;5.75;;;1.50;;
64609;SDS011;51019;46.090;6.350;2022-08-01T12:29:55;3.10;;;1.17;;
64609;SDS011;51019;46.090;6.350;2022-08-01T12:32:25;4.07;;;1.40;;
64609;SDS011;51019;46.090;6.350;2022-08-01T12:34:56;2.90;;;1.30;;
64609;SDS011;51019;46.090;6.350;2022-08-01T12:37:27;3.78;;;1.58;;
64609;SDS011;51019;46.090;6.350;2022-08-01T12:39:55;3.25;;;1.27;;
64609;SDS011;51019;46.090;6.350;2022-08-01T12:42:24;3.70;;;1.35;;
64609;SDS011;51019;46.090;6.350;2022-08-01T12:44:51;4.60;;;1.25;;
64609;SDS011;51019;46.090;6.350;2022-08-01T12:47:21;4.63;;;1.30;;
64609;SDS011;51019;46.090;6.350;2022-08-01T12:49:50;4.05;;;1.23;;
64609;SDS011;51019;46.090;6.350;2022-08-01T12:52:18;2.35;;;1.10;;
64609;SDS011;51019;46.090;6.350;2022-08-01T12:55:04;3.83;;;1.27;;
64609;SDS011;51019;46.090;6.350;2022-08-01T12:57:35;2.00;;;1.10;;
64609;SDS011;51019;46.090;6.350;2022-08-01T13:00:10;4.78;;;1.40;;
64609;SDS011;51019;46.090;6.350;2022-08-01T13:02:45;3.85;;;1.15;;
64609;SDS011;51019;46.090;6.350;2022-08-01T13:05:14;4.15;;;1.30;;
64609;SDS011;51019;46.090;6.350;2022-08-01T13:07:46;2.97;;;1.30;;
64609;SDS011;51019;46.090;6.350;2022-08-01T13:10:24;1.98;;;1.10;;
64609;SDS011;51019;46.090;6.350;2022-08-01T13:12:53;3.28;;;1.25;;
64609;SDS011;51019;46.090;6.350;2022-08-01T13:15:32;4.00;;;1.25;;
64609;SDS011;51019;46.090;6.350;2022-08-01T13:21:08;4.53;;;1.60;;
64609;SDS011;51019;46.090;6.350;2022-08-01T13:23:36;3.95;;;1.40;;
64609;SDS011;51019;46.090;6.350;2022-08-01T13:26:04;3.70;;;1.48;;
64609;SDS011;51019;46.090;6.350;2022-08-01T13:28:32;4.90;;;1.48;;
64609;SDS011;51019;46.090;6.350;2022-08-01T13:31:03;6.38;;;1.40;;
64609;SDS011;51019;46.090;6.350;2022-08-01T13:33:41;3.38;;;1.30;;
64609;SDS011;51019;46.090;6.350;2022-08-01T13:36:09;2.75;;;1.20;;
64609;SDS011;51019;46.090;6.350;2022-08-01T13:38:39;2.92;;;1.20;;
64609;SDS011;51019;46.090;6.350;2022-08-01T13:41:24;6.13;;;1.40;;
64609;SDS011;51019;46.090;6.350;2022-08-01T13:43:52;3.28;;;1.30;;
64609;SDS011;51019;46.090;6.350;2022-08-01T13:46:20;2.90;;;1.20;;
64609;SDS011;51019;46.090;6.350;2022-08-01T13:48:48;1.88;;;1.20;;
64609;SDS011;51019;46.090;6.350;2022-08-01T13:51:16;4.80;;;1.20;;
64609;SDS011;51019;46.090;6.350;2022-08-01T13:53:43;3.20;;;1.20;;
64609;SDS011;51019;46.090;6.350;2022-08-01T13:56:10;3.03;;;1.20;;
64609;SDS011;51019;46.090;6.350;2022-08-01T13:58:37;3.72;;;1.15;;
64609;SDS011;51019;46.090;6.350;2022-08-01T14:01:04;2.92;;;1.10;;
64609;SDS011;51019;46.090;6.350;2022-08-01T14:03:32;2.95;;;1.10;;
64609;SDS011;51019;46.090;6.350;2022-08-01T14:06:01;4.85;;;1.30;;
64609;SDS011;51019;46.090;6.350;2022-08-01T14:08:28;1.60;;;1.00;;
64609;SDS011;51019;46.090;6.350;2022-08-01T14:10:55;2.67;;;1.10;;
64609;SDS011;51019;46.090;6.350;2022-08-01T14:13:23;3.83;;;1.27;;
64609;SDS011;51019;46.090;6.350;2022-08-01T14:15:50;3.65;;;1.50;;
64609;SDS011;51019;46.090;6.350;2022-08-01T14:18:18;4.88;;;1.30;;
64609;SDS011;51019;46.090;6.350;2022-08-01T14:20:45;4.82;;;1.38;;
64609;SDS011;51019;46.090;6.350;2022-08-01T14:23:15;2.83;;;1.30;;
64609;SDS011;51019;46.090;6.350;2022-08-01T14:25:42;4.68;;;1.63;;
64609;SDS011;51019;46.090;6.350;2022-08-01T14:28:09;3.83;;;1.50;;
64609;SDS011;51019;46.090;6.350;2022-08-01T14:30:36;4.75;;;1.50;;
64609;SDS011;51019;46.090;6.350;2022-08-01T14:33:06;6.57;;;1.48;;
64609;SDS011;51019;46.090;6.350;2022-08-01T14:35:33;3.97;;;1.50;;
64609;SDS011;51019;46.090;6.350;2022-08-01T14:38:00;4.45;;;1.60;;
64609;SDS011;51019;46.090;6.350;2022-08-01T14:40:29;3.20;;;1.40;;
64609;SDS011;51019;46.090;6.350;2022-08-01T14:42:56;5.60;;;1.65;;
64609;SDS011;51019;46.090;6.350;2022-08-01T14:45:26;4.38;;;1.55;;
64609;SDS011;51019;46.090;6.350;2022-08-01T14:47:53;4.40;;;1.30;;
64609;SDS011;51019;46.090;6.350;2022-08-01T14:50:20;9.18;;;1.80;;
64609;SDS011;51019;46.090;6.350;2022-08-01T14:52:54;3.67;;;1.60;;
64609;SDS011;51019;46.090;6.350;2022-08-01T14:55:22;6.95;;;1.73;;
64609;SDS011;51019;46.090;6.350;2022-08-01T14:57:53;4.07;;;1.60;;
64609;SDS011;51019;46.090;6.350;2022-08-01T15:00:22;4.57;;;1.48;;
64609;SDS011;51019;46.090;6.350;2022-08-01T15:02:49;4.13;;;1.60;;
64609;SDS011;51019;46.090;6.350;2022-08-01T15:05:17;4.50;;;1.65;;
64609;SDS011;51019;46.090;6.350;2022-08-01T15:07:44;5.95;;;1.40;;
64609;SDS011;51019;46.090;6.350;2022-08-01T15:10:12;5.03;;;1.50;;
64609;SDS011;51019;46.090;6.350;2022-08-01T15:12:41;4.50;;;1.73;;